Time;durP1;ratioP1;P1;durP2;ratioP2;P2;SDS_P1;SDS_P2;PMS_P1;PMS_P2;Temp;Humidity;BMP_temperature;BMP_pressure;BME280_temperature;BME280_humidity;BME280_pressure;Samples;Min_cycle;Max_cycle;Signal;HPM_P1;HPM_P2
2022/03/01 00:01:47;;;;;;;10.50;5.60;;;2.30;99.90;;;;;;5033383;28;20179;-76
2022/03/01 00:04:12;;;;;;;6.77;4.30;;;2.30;99.90;;;;;;5033421;28;20177;-76
2022/03/01 00:06:38;;;;;;;6.17;4.30;;;2.30;99.90;;;;;;5033121;28;20176;-76
2022/03/01 00:09:04;;;;;;;9.37;4.10;;;2.20;99.90;;;;;;5033024;28;20227;-76
2022/03/01 00:11:31;;;;;;;4.90;3.80;;;2.20;99.90;;;;;;5033372;28;20267;-76
2022/03/01 00:13:56;;;;;;;7.30;4.67;;;2.10;99.90;;;;;;5032834;28;20299;-76
2022/03/01 00:16:22;;;;;;;8.27;4.87;;;2.10;99.90;;;;;;5032861;28;20223;-76
2022/03/01 00:18:48;;;;;;;5.20;4.10;;;2.00;99.90;;;;;;5032949;28;20666;-76
2022/03/01 00:21:13;;;;;;;6.30;4.80;;;2.00;99.90;;;;;;5031725;28;20172;-76
2022/03/01 00:23:39;;;;;;;8.17;4.83;;;1.90;99.90;;;;;;5033402;28;20180;-76
2022/03/01 00:26:04;;;;;;;5.77;4.33;;;1.90;99.90;;;;;;5033483;28;20641;-76
2022/03/01 00:28:30;;;;;;;6.47;4.70;;;1.80;99.90;;;;;;5031082;28;20219;-76
2022/03/01 00:30:56;;;;;;;9.30;5.00;;;1.70;99.90;;;;;;5030043;28;20195;-78
2022/03/01 00:33:21;;;;;;;7.63;4.73;;;1.70;99.90;;;;;;5031690;28;20295;-77
2022/03/01 00:35:47;;;;;;;7.47;5.50;;;1.60;99.90;;;;;;5033115;28;20176;-76
2022/03/01 00:38:13;;;;;;;6.80;4.93;;;1.60;99.90;;;;;;5030362;28;20208;-77
2022/03/01 00:40:38;;;;;;;8.33;4.90;;;1.50;99.90;;;;;;5032105;28;20540;-78
2022/03/01 00:43:04;;;;;;;7.23;5.27;;;1.50;99.90;;;;;;5031569;28;20235;-76
2022/03/01 00:45:29;;;;;;;8.63;5.17;;;1.40;99.90;;;;;;5033030;28;20184;-76
2022/03/01 00:47:55;;;;;;;8.53;5.30;;;1.40;99.90;;;;;;5029710;28;20261;-78
2022/03/01 00:50:20;;;;;;;9.67;5.80;;;1.40;99.90;;;;;;5029483;28;20194;-76
2022/03/01 00:52:46;;;;;;;7.10;5.03;;;1.30;99.90;;;;;;5031748;28;20242;-76
2022/03/01 00:55:11;;;;;;;7.63;5.53;;;1.30;99.90;;;;;;5030429;28;20188;-76
2022/03/01 00:57:37;;;;;;;9.80;5.07;;;1.20;99.90;;;;;;5030650;28;20657;-78
2022/03/01 01:00:05;;;;;;;7.90;5.27;;;1.20;99.90;;;;;;5029567;28;20224;-76
2022/03/01 01:02:30;;;;;;;7.67;4.87;;;1.20;99.90;;;;;;5045323;28;20199;-76
2022/03/01 01:04:56;;;;;;;7.07;5.00;;;1.10;99.90;;;;;;5031506;28;20191;-76
2022/03/01 01:07:22;;;;;;;5.53;4.77;;;1.10;99.90;;;;;;5031406;28;20188;-76
2022/03/01 01:09:47;;;;;;;10.47;4.47;;;1.00;99.90;;;;;;5030031;28;20662;-76
2022/03/01 01:12:13;;;;;;;7.03;4.50;;;1.00;99.90;;;;;;5033761;28;20690;-76
2022/03/01 01:14:38;;;;;;;6.57;4.80;;;1.00;99.90;;;;;;5035255;28;20211;-76
2022/03/01 01:17:04;;;;;;;7.73;4.83;;;1.00;99.90;;;;;;5033775;28;20581;-74
2022/03/01 01:19:29;;;;;;;7.33;4.80;;;0.90;99.90;;;;;;5033525;28;20239;-76
2022/03/01 01:24:39;;;;;;;7.07;5.17;;;0.80;99.90;;;;;;5034550;28;20645;-77
2022/03/01 01:27:04;;;;;;;9.53;5.30;;;0.70;99.90;;;;;;5034986;28;22023;-76
2022/03/01 01:29:30;;;;;;;13.03;5.73;;;0.70;99.90;;;;;;5034583;28;20223;-76
2022/03/01 01:31:55;;;;;;;9.03;5.87;;;0.70;99.90;;;;;;5033724;28;20338;-76
2022/03/01 01:34:21;;;;;;;9.60;6.03;;;0.70;99.90;;;;;;5034009;28;20210;-77
2022/03/01 01:36:47;;;;;;;10.17;5.80;;;0.90;99.90;;;;;;5049800;28;20605;-76
2022/03/01 01:39:12;;;;;;;8.43;5.30;;;0.90;99.90;;;;;;5033167;28;20214;-76
2022/03/01 01:41:38;;;;;;;11.90;7.17;;;1.00;99.90;;;;;;5033423;28;20188;-76
2022/03/01 01:44:07;;;;;;;6.97;5.23;;;1.00;99.90;;;;;;5034714;28;20204;-76
2022/03/01 01:46:33;;;;;;;7.37;5.53;;;1.10;99.90;;;;;;5034656;28;20191;-77
2022/03/01 01:48:59;;;;;;;8.07;5.10;;;1.20;99.90;;;;;;5034280;28;20265;-76
2022/03/01 01:51:25;;;;;;;7.53;5.07;;;1.10;99.90;;;;;;5033849;28;20183;-76
2022/03/01 01:53:51;;;;;;;9.37;5.83;;;1.00;99.90;;;;;;5034433;28;20690;-76
2022/03/01 01:56:17;;;;;;;9.40;6.40;;;1.00;99.90;;;;;;5035474;28;20549;-76
2022/03/01 01:58:43;;;;;;;11.87;6.40;;;1.00;99.90;;;;;;5032280;28;20210;-76
2022/03/01 02:01:09;;;;;;;8.17;5.77;;;0.90;99.90;;;;;;5033161;28;20550;-78
2022/03/01 02:03:35;;;;;;;7.97;5.67;;;1.00;99.90;;;;;;5034307;28;20540;-76
2022/03/01 02:06:01;;;;;;;8.30;5.57;;;0.90;99.90;;;;;;5032915;28;20183;-72
2022/03/01 02:08:30;;;;;;;7.33;5.20;;;0.90;99.90;;;;;;5032054;28;20626;-76
2022/03/01 02:10:57;;;;;;;7.80;5.63;;;0.90;99.90;;;;;;5033890;28;20180;-76
2022/03/01 02:13:23;;;;;;;10.10;6.10;;;0.80;99.90;;;;;;5032992;28;20219;-78
2022/03/01 02:15:49;;;;;;;8.37;6.00;;;0.80;99.90;;;;;;5034023;28;20172;-77
2022/03/01 02:18:16;;;;;;;8.23;5.90;;;0.80;99.90;;;;;;5033441;28;20192;-78
2022/03/01 02:20:41;;;;;;;8.07;5.90;;;0.80;99.90;;;;;;5033968;28;20180;-76
2022/03/01 02:23:07;;;;;;;9.50;6.63;;;0.70;99.90;;;;;;5033400;28;20283;-76
2022/03/01 02:25:33;;;;;;;7.70;5.43;;;0.70;99.90;;;;;;5030991;28;20611;-76
2022/03/01 02:27:59;;;;;;;9.77;6.00;;;0.70;99.90;;;;;;5033019;28;20208;-77
2022/03/01 02:30:24;;;;;;;10.27;6.17;;;0.70;99.90;;;;;;5034396;28;20191;-76
2022/03/01 02:32:50;;;;;;;8.83;5.80;;;0.70;99.90;;;;;;5032464;28;20195;-76
2022/03/01 02:35:16;;;;;;;9.07;5.83;;;0.70;99.90;;;;;;5034787;28;20190;-76
2022/03/01 02:37:42;;;;;;;8.33;6.23;;;0.70;99.90;;;;;;5032149;28;20207;-78
2022/03/01 02:40:09;;;;;;;9.30;6.20;;;0.70;99.90;;;;;;5031318;28;20183;-75
2022/03/01 02:42:38;;;;;;;8.07;5.70;;;0.70;99.90;;;;;;5033599;28;20661;-76
2022/03/01 02:45:07;;;;;;;8.47;5.70;;;0.70;99.90;;;;;;5032330;28;20646;-76
2022/03/01 02:47:32;;;;;;;8.43;5.83;;;0.70;99.90;;;;;;5032842;28;20184;-76
2022/03/01 02:49:58;;;;;;;9.37;5.37;;;0.60;99.90;;;;;;5031003;28;20201;-76
2022/03/01 02:52:23;;;;;;;8.20;5.07;;;0.60;99.90;;;;;;5032962;28;20270;-77
2022/03/01 02:54:49;;;;;;;8.93;6.20;;;0.60;99.90;;;;;;5034386;28;20173;-77
2022/03/01 02:57:15;;;;;;;10.53;5.57;;;0.60;99.90;;;;;;5031507;28;20180;-76
2022/03/01 02:59:40;;;;;;;6.50;5.13;;;0.50;99.90;;;;;;5031707;28;20685;-76
2022/03/01 03:02:06;;;;;;;6.20;4.60;;;0.50;99.90;;;;;;5033180;28;20199;-77
2022/03/01 03:04:32;;;;;;;8.43;4.70;;;0.60;99.90;;;;;;5033164;28;20640;-77
2022/03/01 03:06:57;;;;;;;6.77;4.77;;;0.50;99.90;;;;;;5033173;28;20183;-77
2022/03/01 03:09:23;;;;;;;9.07;5.40;;;0.50;99.90;;;;;;5032712;28;20300;-77
2022/03/01 03:11:49;;;;;;;8.93;5.63;;;0.50;99.90;;;;;;5030216;28;20204;-77
2022/03/01 03:14:15;;;;;;;12.43;5.30;;;0.50;99.90;;;;;;5031483;28;20688;-77
2022/03/01 03:16:41;;;;;;;11.77;5.60;;;0.50;99.90;;;;;;5033086;28;20176;-76
2022/03/01 03:19:07;;;;;;;11.33;5.63;;;0.50;99.90;;;;;;5029798;28;20196;-77
2022/03/01 03:21:33;;;;;;;7.27;5.37;;;0.50;99.90;;;;;;5032945;28;20180;-76
2022/03/01 03:23:59;;;;;;;8.37;5.40;;;0.40;99.90;;;;;;5031984;28;20200;-76
2022/03/01 03:26:25;;;;;;;7.53;5.13;;;0.40;99.90;;;;;;5033163;28;20592;-78
2022/03/01 03:28:51;;;;;;;16.10;5.40;;;0.40;99.90;;;;;;5031815;28;20211;-76
2022/03/01 03:31:17;;;;;;;8.23;5.37;;;0.30;99.90;;;;;;5033705;28;20179;-76
2022/03/01 03:33:42;;;;;;;6.23;4.60;;;0.30;99.90;;;;;;5030163;28;20585;-76
2022/03/01 03:36:08;;;;;;;6.77;5.03;;;0.40;99.90;;;;;;5032774;28;20251;-76
2022/03/01 03:38:34;;;;;;;7.20;5.20;;;0.40;99.90;;;;;;5031649;28;20640;-76
2022/03/01 03:40:59;;;;;;;8.20;5.17;;;0.40;99.90;;;;;;5031525;28;20658;-76
2022/03/01 03:43:25;;;;;;;8.63;6.00;;;0.40;99.90;;;;;;5031108;28;20191;-78
2022/03/01 03:45:50;;;;;;;9.73;5.40;;;0.40;99.90;;;;;;5033464;28;20519;-76
2022/03/01 03:48:16;;;;;;;7.47;4.93;;;0.50;99.90;;;;;;5031015;28;20697;-76
2022/03/01 03:50:42;;;;;;;7.03;5.33;;;0.50;99.90;;;;;;5033421;28;20174;-76
2022/03/01 03:53:08;;;;;;;7.73;5.20;;;0.50;99.90;;;;;;5031484;28;20211;-76
2022/03/01 03:55:33;;;;;;;7.83;5.20;;;0.60;99.90;;;;;;5033304;28;20179;-76
2022/03/01 03:57:59;;;;;;;9.63;5.83;;;0.60;99.90;;;;;;5031427;28;20258;-78
2022/03/01 04:00:25;;;;;;;7.23;5.30;;;0.60;99.90;;;;;;5048572;28;20179;-76
2022/03/01 04:02:51;;;;;;;7.73;5.47;;;0.70;99.90;;;;;;5031114;28;20539;-76
2022/03/01 04:05:16;;;;;;;10.40;6.13;;;0.70;99.90;;;;;;5033180;28;20172;-76
2022/03/01 04:07:44;;;;;;;7.70;5.77;;;0.80;99.90;;;;;;5032308;28;20215;-76
2022/03/01 04:10:11;;;;;;;9.13;6.07;;;0.80;99.90;;;;;;5029672;28;20180;-76
2022/03/01 04:12:37;;;;;;;7.67;6.03;;;1.00;99.90;;;;;;5030721;28;20498;-76
2022/03/01 04:15:04;;;;;;;8.33;5.87;;;1.10;99.90;;;;;;5029754;28;20229;-77
2022/03/01 04:17:30;;;;;;;8.73;6.23;;;1.20;99.90;;;;;;5031858;28;20192;-76
2022/03/01 04:19:56;;;;;;;8.53;5.70;;;1.30;99.90;;;;;;5030393;28;20211;-76
2022/03/01 04:22:22;;;;;;;8.20;5.23;;;1.40;99.90;;;;;;5030750;28;20215;-76
2022/03/01 04:24:48;;;;;;;7.60;5.60;;;1.50;99.90;;;;;;5029830;28;20176;-77
2022/03/01 04:27:13;;;;;;;9.33;5.67;;;1.60;99.90;;;;;;5030993;28;20254;-77
2022/03/01 04:29:39;;;;;;;9.17;5.77;;;1.60;99.90;;;;;;5029267;23;20241;-81
2022/03/01 04:32:05;;;;;;;7.20;5.33;;;1.70;99.90;;;;;;4996775;28;20227;-81
2022/03/01 04:34:31;;;;;;;6.83;5.27;;;1.80;99.90;;;;;;4999146;28;20205;-81
2022/03/01 04:36:56;;;;;;;7.30;4.90;;;1.80;99.90;;;;;;4998022;28;20181;-81
2022/03/01 04:39:22;;;;;;;9.30;5.57;;;1.80;99.90;;;;;;4996424;28;20205;-81
2022/03/01 04:41:48;;;;;;;9.03;5.13;;;1.90;99.90;;;;;;4996661;28;20185;-81
2022/03/01 04:44:14;;;;;;;10.27;6.00;;;1.90;99.90;;;;;;4997316;28;20180;-81
2022/03/01 04:46:40;;;;;;;11.30;5.50;;;2.00;99.90;;;;;;4988045;28;20263;-81
2022/03/01 04:49:06;;;;;;;7.63;5.33;;;2.00;99.90;;;;;;4996159;28;20217;-81
2022/03/01 04:51:32;;;;;;;11.27;5.03;;;2.00;99.90;;;;;;4987537;28;20178;-81
2022/03/01 04:53:58;;;;;;;7.00;5.20;;;2.10;99.90;;;;;;5001573;28;20247;-81
2022/03/01 04:56:24;;;;;;;6.57;5.30;;;2.10;99.90;;;;;;4995922;28;20201;-81
2022/03/01 04:58:50;;;;;;;7.73;5.03;;;2.10;99.90;;;;;;4992279;28;20615;-81
2022/03/01 05:01:16;;;;;;;9.23;5.60;;;2.10;99.90;;;;;;5002448;28;20240;-81
2022/03/01 05:03:42;;;;;;;11.50;5.97;;;2.20;99.90;;;;;;5002546;28;20195;-81
2022/03/01 05:06:07;;;;;;;8.70;5.33;;;2.20;99.90;;;;;;5001988;28;20181;-81
2022/03/01 05:08:33;;;;;;;10.47;5.67;;;2.20;99.90;;;;;;5002825;28;20209;-81
2022/03/01 05:10:59;;;;;;;8.93;5.40;;;2.30;99.90;;;;;;5003557;28;20185;-81
2022/03/01 05:13:25;;;;;;;7.13;5.23;;;2.30;99.90;;;;;;5000011;28;20221;-82
2022/03/01 05:15:51;;;;;;;9.33;5.27;;;2.30;99.90;;;;;;5012658;28;20184;-79
2022/03/01 05:18:16;;;;;;;9.33;5.57;;;2.30;99.90;;;;;;5010868;28;20210;-80
2022/03/01 05:20:42;;;;;;;9.43;5.47;;;2.40;99.90;;;;;;5008224;28;20253;-81
2022/03/01 05:23:08;;;;;;;7.33;5.30;;;2.40;99.90;;;;;;5009776;28;20193;-80
2022/03/01 05:25:33;;;;;;;10.10;5.43;;;2.50;99.90;;;;;;4990620;28;20640;-81
2022/03/01 05:27:59;;;;;;;10.90;6.07;;;2.50;99.90;;;;;;4994558;28;20292;-81
2022/03/01 05:30:25;;;;;;;8.17;5.50;;;2.60;99.90;;;;;;5014643;28;20636;-81
2022/03/01 05:32:51;;;;;;;7.83;5.07;;;2.60;99.90;;;;;;5014178;28;20581;-81
2022/03/01 05:35:19;;;;;;;8.70;5.43;;;2.60;99.90;;;;;;4999948;28;20179;-81
2022/03/01 05:37:47;;;;;;;11.80;6.10;;;2.60;99.90;;;;;;4995633;28;20190;-81
2022/03/01 05:40:13;;;;;;;8.33;5.83;;;2.70;99.90;;;;;;5003235;28;20221;-81
2022/03/01 05:42:39;;;;;;;8.23;5.70;;;2.70;99.90;;;;;;5001214;28;20173;-79
2022/03/01 05:45:05;;;;;;;12.73;6.07;;;2.70;99.90;;;;;;5001754;28;20185;-79
2022/03/01 05:47:31;;;;;;;12.27;6.33;;;2.70;99.90;;;;;;5003391;28;20177;-78
2022/03/01 05:49:57;;;;;;;9.87;6.13;;;2.70;99.90;;;;;;5003859;28;20198;-79
2022/03/01 05:52:23;;;;;;;11.13;5.50;;;2.80;99.90;;;;;;5018700;28;20185;-79
2022/03/01 05:54:49;;;;;;;7.40;5.60;;;2.80;99.90;;;;;;5019531;28;20179;-79
2022/03/01 05:57:15;;;;;;;9.40;6.20;;;2.80;99.90;;;;;;5004432;28;20643;-79
2022/03/01 05:59:41;;;;;;;9.03;6.10;;;2.90;99.90;;;;;;5004259;28;20200;-79
2022/03/01 06:02:06;;;;;;;10.17;5.77;;;2.90;99.90;;;;;;5017946;28;20182;-79
2022/03/01 06:04:32;;;;;;;7.47;5.80;;;2.90;99.90;;;;;;5004498;28;20262;-77
2022/03/01 06:06:58;;;;;;;9.57;6.40;;;2.90;99.90;;;;;;5003650;28;20181;-78
2022/03/01 06:09:23;;;;;;;11.83;6.33;;;2.90;99.90;;;;;;4998259;28;20229;-78
2022/03/01 06:11:49;;;;;;;10.13;6.30;;;2.90;99.90;;;;;;4999894;28;20213;-78
2022/03/01 06:14:14;;;;;;;9.93;6.27;;;3.00;99.90;;;;;;5000603;28;20271;-78
2022/03/01 06:16:40;;;;;;;8.30;5.90;;;3.00;99.90;;;;;;5000310;28;20636;-78
2022/03/01 06:19:06;;;;;;;9.27;5.77;;;3.00;99.90;;;;;;4998759;28;20232;-78
2022/03/01 06:21:31;;;;;;;11.23;5.93;;;2.90;99.90;;;;;;5000576;28;20177;-78
2022/03/01 06:23:57;;;;;;;9.30;6.10;;;2.90;99.90;;;;;;4999963;28;20268;-78
2022/03/01 06:26:23;;;;;;;9.20;5.90;;;2.90;99.90;;;;;;5008659;28;20181;-78
2022/03/01 06:28:50;;;;;;;9.30;5.60;;;3.00;99.90;;;;;;5018080;28;20197;-78
2022/03/01 06:31:15;;;;;;;8.77;6.33;;;3.00;99.90;;;;;;5011290;28;20201;-79
2022/03/01 06:33:41;;;;;;;10.07;5.80;;;3.00;99.90;;;;;;5012611;28;20205;-77
2022/03/01 06:36:07;;;;;;;9.50;6.27;;;3.00;99.90;;;;;;5017153;28;20672;-78
2022/03/01 06:38:32;;;;;;;10.10;6.43;;;3.10;99.90;;;;;;5016604;28;20205;-77
2022/03/01 06:40:58;;;;;;;10.13;6.60;;;3.10;99.90;;;;;;5014981;28;20554;-78
2022/03/01 06:43:24;;;;;;;9.80;6.50;;;3.10;99.90;;;;;;5013343;28;20269;-77
2022/03/01 06:45:50;;;;;;;9.97;6.10;;;3.10;99.90;;;;;;5008751;28;20178;-78
2022/03/01 06:48:16;;;;;;;9.13;6.23;;;3.10;99.90;;;;;;5001520;28;20220;-78
2022/03/01 06:50:41;;;;;;;9.47;6.53;;;3.10;99.90;;;;;;5003016;28;20182;-78
2022/03/01 06:53:07;;;;;;;11.93;6.37;;;3.20;99.90;;;;;;5000349;28;20216;-78
2022/03/01 06:55:33;;;;;;;11.30;6.73;;;3.10;99.90;;;;;;4999520;28;20249;-79
2022/03/01 06:57:59;;;;;;;11.30;6.40;;;3.20;99.90;;;;;;5001988;28;20186;-78
2022/03/01 07:00:24;;;;;;;9.83;6.90;;;3.20;99.90;;;;;;5001429;28;20189;-78
2022/03/01 07:02:50;;;;;;;14.37;6.60;;;3.20;99.90;;;;;;5002478;28;20184;-78
2022/03/01 07:05:17;;;;;;;8.90;6.50;;;3.20;99.90;;;;;;5001602;28;20212;-78
2022/03/01 07:07:43;;;;;;;11.60;6.90;;;3.30;99.90;;;;;;5004748;28;20196;-78
2022/03/01 07:10:12;;;;;;;11.63;6.90;;;3.30;99.90;;;;;;4999329;28;20250;-77
2022/03/01 07:12:43;;;;;;;9.23;5.93;;;3.40;99.90;;;;;;5000682;28;20184;-78
2022/03/01 07:15:09;;;;;;;10.80;6.60;;;3.40;99.90;;;;;;5000031;28;20178;-78
2022/03/01 07:17:34;;;;;;;9.83;5.97;;;3.40;99.90;;;;;;4999236;28;20178;-78
2022/03/01 07:20:00;;;;;;;10.60;7.07;;;3.50;99.90;;;;;;5014524;28;20200;-77
2022/03/01 07:22:26;;;;;;;11.83;6.83;;;3.50;99.90;;;;;;4996409;28;20184;-78
2022/03/01 07:24:51;;;;;;;9.43;6.17;;;3.50;99.90;;;;;;4995787;28;20646;-77
2022/03/01 07:27:17;;;;;;;10.83;6.57;;;3.60;99.90;;;;;;4996245;28;20197;-77
2022/03/01 07:29:43;;;;;;;10.70;6.53;;;3.60;99.90;;;;;;4995915;28;20218;-77
2022/03/01 07:32:09;;;;;;;13.67;6.63;;;3.70;99.90;;;;;;5000077;28;20184;-78
2022/03/01 07:34:35;;;;;;;13.27;6.03;;;3.70;99.90;;;;;;4997544;28;20232;-78
2022/03/01 07:37:01;;;;;;;11.47;6.37;;;3.70;99.90;;;;;;4997961;28;20178;-77
2022/03/01 07:39:27;;;;;;;12.60;6.63;;;3.80;99.90;;;;;;4997914;28;20204;-78
2022/03/01 07:41:53;;;;;;;10.17;6.30;;;3.80;99.90;;;;;;4995988;28;20182;-78
2022/03/01 07:44:19;;;;;;;10.90;6.60;;;3.80;99.90;;;;;;4996359;28;20178;-78
2022/03/01 07:46:45;;;;;;;12.07;6.97;;;3.80;99.90;;;;;;4998407;28;20184;-77
2022/03/01 07:49:11;;;;;;;12.87;6.90;;;3.90;99.90;;;;;;4998107;28;20626;-78
2022/03/01 07:51:37;;;;;;;12.93;6.97;;;3.90;99.90;;;;;;4998909;28;20181;-78
2022/03/01 07:54:03;;;;;;;11.13;6.60;;;3.90;99.90;;;;;;5001142;28;20634;-77
2022/03/01 07:56:28;;;;;;;10.57;6.97;;;4.00;99.90;;;;;;4998240;28;20182;-78
2022/03/01 07:58:54;;;;;;;12.90;7.67;;;4.00;99.90;;;;;;4997602;28;20193;-78
2022/03/01 08:01:21;;;;;;;12.03;6.70;;;4.10;99.90;;;;;;4996233;28;20250;-77
2022/03/01 08:03:47;;;;;;;11.47;7.20;;;4.10;99.90;;;;;;4994743;28;20224;-77
2022/03/01 08:06:13;;;;;;;11.20;6.87;;;4.10;99.90;;;;;;4996653;28;20197;-78
2022/03/01 08:08:38;;;;;;;10.73;6.57;;;4.10;99.90;;;;;;4996921;28;20198;-78
2022/03/01 08:11:07;;;;;;;15.50;6.77;;;4.20;99.90;;;;;;4995921;28;20189;-78
2022/03/01 08:13:33;;;;;;;12.40;7.40;;;4.20;99.90;;;;;;4994651;28;20288;-78
2022/03/01 08:15:59;;;;;;;10.83;6.63;;;4.20;99.90;;;;;;4996170;28;20656;-78
2022/03/01 08:18:25;;;;;;;12.63;7.03;;;4.30;99.90;;;;;;4997586;28;20248;-78
2022/03/01 08:20:51;;;;;;;11.53;7.23;;;4.30;99.90;;;;;;4998054;28;20174;-78
2022/03/01 08:23:16;;;;;;;11.37;7.00;;;4.40;99.90;;;;;;4998541;28;20187;-78
2022/03/01 08:25:42;;;;;;;10.13;6.53;;;4.50;99.90;;;;;;4996770;28;20204;-77
2022/03/01 08:28:08;;;;;;;10.97;6.70;;;4.50;99.90;;;;;;4999386;28;20304;-78
2022/03/01 08:30:35;;;;;;;15.50;6.90;;;4.60;99.90;;;;;;4998955;28;20220;-77
2022/03/01 08:33:01;;;;;;;11.53;6.67;;;4.60;99.90;;;;;;4998719;28;20228;-76
2022/03/01 08:35:27;;;;;;;11.43;6.50;;;4.70;99.90;;;;;;4998179;28;20181;-77
2022/03/01 08:37:53;;;;;;;9.67;6.43;;;4.70;99.90;;;;;;4998616;28;20174;-78
2022/03/01 08:40:21;;;;;;;12.63;6.47;;;4.80;99.90;;;;;;4999316;28;20170;-78
2022/03/01 08:42:47;;;;;;;10.40;6.93;;;4.80;99.90;;;;;;4997472;28;20181;-78
2022/03/01 08:45:12;;;;;;;11.60;6.93;;;4.90;99.90;;;;;;4995629;28;20183;-78
2022/03/01 08:47:38;;;;;;;12.10;6.57;;;4.90;99.90;;;;;;4996478;28;20185;-78
2022/03/01 08:50:05;;;;;;;11.37;6.87;;;5.00;99.90;;;;;;4997182;28;20723;-78
2022/03/01 08:52:31;;;;;;;10.43;6.53;;;5.10;99.90;;;;;;4999066;28;20177;-78
2022/03/01 08:54:56;;;;;;;13.33;6.83;;;5.10;99.90;;;;;;4997202;28;20178;-78
2022/03/01 08:57:22;;;;;;;10.80;6.90;;;5.20;99.90;;;;;;4994875;28;20178;-78
2022/03/01 08:59:47;;;;;;;10.50;6.00;;;5.30;99.90;;;;;;4996178;28;20194;-78
2022/03/01 09:02:13;;;;;;;12.17;6.70;;;5.30;99.90;;;;;;4998479;28;20193;-78
2022/03/01 09:04:39;;;;;;;13.07;7.07;;;5.40;99.90;;;;;;4998450;28;20181;-77
2022/03/01 09:07:05;;;;;;;13.13;7.30;;;5.50;99.90;;;;;;4998192;28;20178;-78
2022/03/01 09:09:31;;;;;;;10.50;6.63;;;5.60;99.90;;;;;;4997659;28;20260;-78
2022/03/01 09:11:57;;;;;;;11.33;6.50;;;5.60;99.90;;;;;;4998516;28;20190;-78
2022/03/01 09:14:23;;;;;;;9.83;6.50;;;5.70;99.90;;;;;;4995692;28;20228;-78
2022/03/01 09:16:49;;;;;;;12.13;6.20;;;5.80;99.90;;;;;;4995634;28;20644;-78
2022/03/01 09:19:15;;;;;;;10.93;6.90;;;5.80;97.60;;;;;;4994828;28;20201;-78
2022/03/01 09:21:42;;;;;;;11.27;7.03;;;5.90;98.80;;;;;;5011571;28;20734;-78
2022/03/01 09:24:07;;;;;;;10.03;6.77;;;5.90;96.00;;;;;;5011359;28;20213;-77
2022/03/01 09:26:33;;;;;;;9.23;6.40;;;5.90;97.00;;;;;;4995774;28;20173;-77
2022/03/01 09:28:59;;;;;;;15.03;7.17;;;5.90;96.50;;;;;;4995408;28;20274;-77
2022/03/01 09:31:25;;;;;;;13.07;7.07;;;5.90;94.40;;;;;;4995056;28;20737;-78
2022/03/01 09:33:50;;;;;;;15.03;7.17;;;6.00;93.50;;;;;;4999477;28;20196;-79
2022/03/01 09:36:16;;;;;;;12.90;6.73;;;6.00;93.30;;;;;;5005202;28;20177;-78
2022/03/01 09:38:42;;;;;;;10.67;6.80;;;6.00;91.80;;;;;;5006315;28;20200;-79
2022/03/01 09:41:08;;;;;;;12.17;6.50;;;6.10;91.30;;;;;;5007989;28;20212;-79
2022/03/01 09:43:38;;;;;;;12.20;6.97;;;6.10;90.20;;;;;;5007934;28;20528;-78
2022/03/01 09:46:04;;;;;;;10.60;6.90;;;6.10;86.20;;;;;;5004506;28;20750;-78
2022/03/01 09:48:30;;;;;;;12.83;7.30;;;6.20;83.60;;;;;;5000198;28;20202;-78
2022/03/01 09:50:58;;;;;;;10.80;6.27;;;6.30;80.80;;;;;;5001420;28;20626;-78
2022/03/01 09:53:24;;;;;;;10.37;6.67;;;6.40;75.90;;;;;;5002552;28;20197;-78
2022/03/01 09:55:52;;;;;;;10.53;5.90;;;6.40;76.50;;;;;;5002286;28;20228;-78
2022/03/01 09:58:17;;;;;;;9.70;6.67;;;6.60;79.60;;;;;;5000737;28;20190;-79
2022/03/01 10:00:45;;;;;;;10.67;6.63;;;6.70;85.30;;;;;;5000922;28;20177;-79
2022/03/01 10:03:15;;;;;;;10.10;6.37;;;6.80;81.20;;;;;;5000001;28;20182;-78
2022/03/01 10:05:42;;;;;;;12.87;6.50;;;6.90;72.70;;;;;;4999770;28;20343;-77
2022/03/01 10:08:20;;;;;;;12.60;6.17;;;7.00;71.80;;;;;;5001659;28;20193;-79
2022/03/01 10:10:47;;;;;;;11.00;6.43;;;7.10;73.30;;;;;;5001195;28;20252;-79
2022/03/01 10:13:35;;;;;;;13.57;7.33;;;7.20;68.00;;;;;;5000969;28;20283;-79
2022/03/01 10:16:09;;;;;;;11.57;6.50;;;7.30;63.40;;;;;;5001176;28;20540;-78
2022/03/01 10:18:56;;;;;;;10.40;5.90;;;7.30;66.40;;;;;;5000687;28;20196;-78
2022/03/01 10:21:24;;;;;;;8.43;5.40;;;7.40;66.30;;;;;;5002307;28;20177;-79
2022/03/01 10:23:52;;;;;;;10.27;6.70;;;7.50;66.60;;;;;;5002122;28;20170;-78
2022/03/01 10:26:21;;;;;;;9.33;6.53;;;7.50;64.00;;;;;;5000313;28;20181;-78
2022/03/01 10:28:48;;;;;;;11.17;7.13;;;7.60;62.20;;;;;;5001785;28;20227;-77
2022/03/01 10:31:17;;;;;;;11.23;6.47;;;7.60;58.00;;;;;;5001687;28;20260;-78
2022/03/01 10:34:13;;;;;;;9.70;6.07;;;7.70;57.20;;;;;;5001574;28;20667;-79
2022/03/01 10:36:44;;;;;;;11.60;6.43;;;7.80;55.00;;;;;;4989564;28;20214;-78
2022/03/01 10:39:33;;;;;;;11.57;6.73;;;7.80;56.60;;;;;;4999105;28;20311;-78
2022/03/01 10:42:03;;;;;;;9.77;5.50;;;7.80;50.70;;;;;;5000938;28;20182;-79
2022/03/01 10:44:30;;;;;;;10.40;6.37;;;7.90;47.60;;;;;;5000537;28;20170;-79
2022/03/01 10:47:05;;;;;;;12.50;6.50;;;7.90;39.90;;;;;;4999187;28;20206;-79
2022/03/01 10:49:33;;;;;;;11.60;6.60;;;8.00;39.20;;;;;;5000478;28;20196;-78
2022/03/01 10:52:07;;;;;;;8.80;5.40;;;8.00;43.50;;;;;;4998788;28;20188;-78
2022/03/01 10:54:33;;;;;;;8.60;6.10;;;8.10;40.90;;;;;;5000448;28;20621;-79
2022/03/01 10:57:00;;;;;;;9.23;5.83;;;8.20;44.20;;;;;;5000747;28;20271;-79
2022/03/01 10:59:28;;;;;;;9.63;6.30;;;8.30;42.50;;;;;;4999915;28;20204;-80
2022/03/01 11:01:56;;;;;;;10.37;6.27;;;8.30;43.30;;;;;;4997608;28;20185;-78
2022/03/01 11:04:23;;;;;;;8.20;5.77;;;8.30;46.60;;;;;;5004244;28;20192;-79
2022/03/01 11:06:49;;;;;;;9.10;6.10;;;8.30;45.30;;;;;;5005162;28;20174;-79
2022/03/01 11:09:15;;;;;;;8.70;5.97;;;8.30;44.00;;;;;;5004956;28;20193;-80
2022/03/01 11:11:42;;;;;;;11.67;6.40;;;8.40;38.20;;;;;;5004364;28;20178;-80
2022/03/01 11:14:14;;;;;;;11.23;6.40;;;8.40;30.70;;;;;;5004775;28;20209;-79
2022/03/01 11:16:49;;;;;;;10.07;6.20;;;8.40;35.90;;;;;;5004628;28;20309;-80
2022/03/01 11:19:45;;;;;;;12.90;5.77;;;8.50;31.30;;;;;;5021010;28;20193;-80
2022/03/01 11:22:27;;;;;;;10.40;5.83;;;8.50;30.60;;;;;;5007788;28;20233;-81
2022/03/01 11:24:54;;;;;;;10.00;6.10;;;8.60;23.70;;;;;;5008056;28;20181;-80
2022/03/01 11:27:25;;;;;;;9.57;5.73;;;8.70;27.70;;;;;;5007036;28;20173;-81
2022/03/01 11:30:03;;;;;;;11.50;6.67;;;8.80;26.10;;;;;;5009573;28;20228;-79
2022/03/01 11:32:37;;;;;;;9.83;5.73;;;8.90;22.50;;;;;;5007298;28;20191;-80
2022/03/01 11:35:04;;;;;;;12.03;6.13;;;8.90;24.60;;;;;;5007300;28;20169;-79
2022/03/01 11:37:30;;;;;;;9.20;6.17;;;9.00;20.50;;;;;;5008188;28;20185;-80
2022/03/01 11:39:59;;;;;;;9.47;5.70;;;9.00;11.50;;;;;;5014035;28;20193;-80
2022/03/01 11:42:30;;;;;;;9.07;5.80;;;9.00;14.70;;;;;;5012444;28;20185;-79
2022/03/01 11:44:55;;;;;;;8.20;5.77;;;9.00;17.10;;;;;;5006247;28;20174;-80
2022/03/01 11:47:31;;;;;;;8.33;5.53;;;9.10;20.70;;;;;;5003877;28;20759;-79
2022/03/01 11:49:56;;;;;;;9.47;5.23;;;9.10;20.30;;;;;;5003880;28;20212;-80
2022/03/01 11:52:25;;;;;;;8.23;5.27;;;9.10;17.50;;;;;;5002682;28;20674;-79
2022/03/01 11:54:53;;;;;;;7.97;5.20;;;9.10;14.30;;;;;;5018511;28;20201;-80
2022/03/01 11:57:25;;;;;;;10.97;5.60;;;9.10;15.30;;;;;;5002967;28;20169;-76
2022/03/01 11:59:52;;;;;;;7.93;5.43;;;9.10;15.10;;;;;;5002813;28;20675;-79
2022/03/01 12:02:18;;;;;;;8.10;5.47;;;9.20;14.90;;;;;;5003004;28;20187;-79
2022/03/01 12:04:47;;;;;;;11.80;6.00;;;9.20;15.80;;;;;;4998459;28;20259;-80
2022/03/01 12:07:24;;;;;;;9.40;5.33;;;9.20;14.40;;;;;;5004348;28;20214;-80
2022/03/01 12:09:58;;;;;;;11.10;6.23;;;9.30;14.60;;;;;;5003031;28;20197;-79
2022/03/01 12:12:52;;;;;;;10.97;5.67;;;9.30;13.60;;;;;;5005971;28;20245;-80
2022/03/01 12:15:27;;;;;;;9.17;5.60;;;9.20;8.60;;;;;;5002120;28;20273;-80
2022/03/01 12:17:53;;;;;;;11.23;6.10;;;9.20;11.00;;;;;;5006458;28;20177;-80
2022/03/01 12:23:53;;;;;;;8.50;5.10;;;9.30;7.70;;;;;;5002631;28;20185;-79
2022/03/01 12:26:18;;;;;;;9.37;5.77;;;9.30;11.10;;;;;;4999892;28;20177;-78
2022/03/01 12:28:46;;;;;;;12.20;6.17;;;9.30;13.80;;;;;;5004958;28;20244;-77
2022/03/01 12:31:20;;;;;;;9.37;5.90;;;9.30;12.50;;;;;;5005241;28;20178;-78
2022/03/01 12:34:07;;;;;;;11.10;5.33;;;9.30;10.60;;;;;;5008900;28;20208;-78
2022/03/01 12:36:40;;;;;;;9.40;6.17;;;9.40;10.10;;;;;;5003130;28;20162;-79
2022/03/01 12:39:08;;;;;;;10.43;5.80;;;9.40;2.60;;;;;;5000298;28;20197;-78
2022/03/01 12:41:35;;;;;;;9.83;5.30;;;9.50;8.30;;;;;;5003172;28;20223;-79
2022/03/01 12:44:03;;;;;;;8.00;5.60;;;9.50;11.80;;;;;;5002890;28;20265;-79
2022/03/01 12:46:29;;;;;;;9.40;5.53;;;9.50;9.30;;;;;;5001936;28;20177;-79
2022/03/01 12:48:56;;;;;;;8.73;5.43;;;9.50;9.10;;;;;;5002380;28;20193;-79
2022/03/01 12:51:23;;;;;;;9.17;6.00;;;9.60;2.10;;;;;;5002921;28;20174;-79
2022/03/01 12:53:54;;;;;;;8.30;5.83;;;9.60;9.50;;;;;;4997965;28;20662;-79
2022/03/01 12:56:22;;;;;;;8.33;5.80;;;9.60;6.70;;;;;;4997961;28;20178;-79
2022/03/01 12:58:49;;;;;;;7.03;5.10;;;9.70;11.00;;;;;;4998763;28;20209;-79